createdAt,value
2022-09-12T00:00:10.036Z,3.57
2022-09-12T00:02:44.390Z,4.20
2022-09-12T00:05:14.430Z,3.67
2022-09-12T00:07:43.149Z,3.20
2022-09-12T00:10:11.909Z,4.20
2022-09-12T00:12:40.658Z,3.33
2022-09-12T00:15:11.077Z,3.40
2022-09-12T00:17:40.431Z,3.90
2022-09-12T00:20:11.590Z,3.70
2022-09-12T00:22:41.542Z,3.87
2022-09-12T00:25:10.320Z,4.33
2022-09-12T00:27:38.938Z,4.13
2022-09-12T00:30:08.536Z,5.83
2022-09-12T00:32:36.978Z,3.70
2022-09-12T00:35:07.337Z,4.07
2022-09-12T00:37:36.821Z,4.07
2022-09-12T00:40:08.012Z,5.03
2022-09-12T00:42:36.659Z,4.43
2022-09-12T00:45:05.814Z,3.77
2022-09-12T00:47:37.893Z,4.40
2022-09-12T00:50:09.697Z,4.03
2022-09-12T00:52:43.337Z,4.30
2022-09-12T00:55:18.203Z,5.27
2022-09-12T00:57:51.718Z,4.70
2022-09-12T01:00:24.119Z,7.60
2022-09-12T01:02:56.653Z,4.10
2022-09-12T01:05:26.486Z,6.47
2022-09-12T01:07:56.277Z,3.90
2022-09-12T01:10:26.911Z,4.37
2022-09-12T01:13:00.463Z,4.83
2022-09-12T01:15:29.383Z,4.63
2022-09-12T01:18:10.233Z,4.40
2022-09-12T01:20:49.509Z,4.77
2022-09-12T01:23:42.399Z,4.70
2022-09-12T01:26:32.199Z,4.07
2022-09-12T01:29:19.456Z,4.53
2022-09-12T01:31:58.041Z,6.40
2022-09-12T01:34:30.311Z,4.50
2022-09-12T01:37:08.147Z,4.47
2022-09-12T01:39:45.053Z,5.17
2022-09-12T01:42:22.499Z,4.33
2022-09-12T01:45:00.754Z,4.10
2022-09-12T01:47:40.794Z,4.17
2022-09-12T01:50:19.538Z,3.87
2022-09-12T01:52:53.911Z,3.90
2022-09-12T01:55:27.130Z,5.83
2022-09-12T01:58:02.163Z,3.80
2022-09-12T02:00:33.484Z,3.57
2022-09-12T02:03:09.714Z,3.63
2022-09-12T02:05:42.244Z,3.80
2022-09-12T02:08:14.633Z,5.00
2022-09-12T02:10:48.065Z,4.20
2022-09-12T02:13:25.265Z,3.80
2022-09-12T02:15:59.865Z,4.17
2022-09-12T02:18:34.624Z,4.10
2022-09-12T02:21:07.720Z,4.20
2022-09-12T02:23:42.287Z,3.93
2022-09-12T02:26:17.842Z,4.57
2022-09-12T02:28:47.027Z,4.40
2022-09-12T02:31:24.825Z,4.13
2022-09-12T02:34:09.636Z,3.93
2022-09-12T02:36:47.873Z,4.80
2022-09-12T02:39:20.328Z,4.43
2022-09-12T02:41:52.392Z,4.87
2022-09-12T02:44:22.447Z,4.50
2022-09-12T02:46:56.445Z,4.03
2022-09-12T02:49:27.008Z,4.83
2022-09-12T02:51:55.904Z,5.03
2022-09-12T02:54:26.103Z,4.40
2022-09-12T02:56:54.692Z,4.53
2022-09-12T02:59:26.010Z,4.60
2022-09-12T03:02:18.001Z,4.40
2022-09-12T03:05:11.694Z,5.77
2022-09-12T03:08:00.544Z,4.87
2022-09-12T03:10:38.721Z,4.67
2022-09-12T03:13:19.004Z,5.20
2022-09-12T03:15:58.401Z,5.10
2022-09-12T03:18:40.295Z,4.47
2022-09-12T03:21:17.633Z,4.50
2022-09-12T03:24:02.115Z,4.57
2022-09-12T03:26:37.651Z,4.53
2022-09-12T03:29:09.178Z,4.80
2022-09-12T03:31:49.362Z,4.60
2022-09-12T03:34:17.799Z,3.90
2022-09-12T03:36:49.102Z,5.67
2022-09-12T03:39:18.385Z,4.77
2022-09-12T03:41:46.794Z,4.43
2022-09-12T03:44:15.169Z,5.40
2022-09-12T03:46:45.177Z,4.43
2022-09-12T03:49:13.807Z,6.10
2022-09-12T03:51:44.310Z,4.67
2022-09-12T03:54:14.275Z,4.93
2022-09-12T03:56:42.763Z,4.17
2022-09-12T03:59:11.277Z,4.73
2022-09-12T04:01:45.435Z,6.10
2022-09-12T04:04:13.986Z,5.07
2022-09-12T04:06:42.962Z,5.10
2022-09-12T04:09:11.237Z,5.27
2022-09-12T04:11:41.271Z,5.37
2022-09-12T04:14:09.864Z,5.63
2022-09-12T04:16:38.113Z,5.80
2022-09-12T04:19:06.697Z,5.33
2022-09-12T04:21:36.414Z,6.03
2022-09-12T04:24:04.919Z,6.40
2022-09-12T04:26:33.360Z,7.37
2022-09-12T04:29:03.317Z,7.10
2022-09-12T04:31:31.671Z,5.47
2022-09-12T04:34:02.405Z,5.40
2022-09-12T04:36:31.217Z,7.03
2022-09-12T04:39:01.510Z,6.40
2022-09-12T04:41:32.307Z,9.77
2022-09-12T04:44:04.757Z,5.93
2022-09-12T04:46:35.553Z,6.37
2022-09-12T04:49:04.745Z,6.17
2022-09-12T04:51:36.106Z,5.90
2022-09-12T04:54:06.101Z,6.00
2022-09-12T04:56:37.860Z,6.63
2022-09-12T04:59:16.221Z,6.07
2022-09-12T05:01:44.752Z,6.93
2022-09-12T05:04:14.388Z,5.80
2022-09-12T05:06:44.448Z,6.87
2022-09-12T05:09:15.409Z,8.20
2022-09-12T05:14:36.736Z,9.17
2022-09-12T05:17:06.328Z,6.83
2022-09-12T05:19:34.924Z,6.70
2022-09-12T05:22:05.062Z,7.37
2022-09-12T05:24:33.928Z,8.37
2022-09-12T05:27:03.560Z,7.60
2022-09-12T05:29:31.946Z,6.47
2022-09-12T05:32:01.786Z,7.33
2022-09-12T05:34:30.390Z,6.87
2022-09-12T05:36:58.752Z,7.23
2022-09-12T05:39:27.258Z,8.57
2022-09-12T05:41:56.054Z,7.33
2022-09-12T05:44:25.041Z,6.93
2022-09-12T05:46:53.796Z,7.50
2022-09-12T05:49:23.563Z,7.73
2022-09-12T05:51:52.354Z,6.80
2022-09-12T05:54:22.994Z,5.03
2022-09-12T05:56:51.500Z,3.90
2022-09-12T05:59:24.366Z,2.50
2022-09-12T06:01:52.820Z,4.50
2022-09-12T06:04:23.852Z,3.17
2022-09-12T06:06:52.152Z,3.17
2022-09-12T06:09:20.902Z,2.40
2022-09-12T06:11:49.325Z,2.57
2022-09-12T06:14:19.572Z,2.75
2022-09-12T06:16:48.780Z,3.50
2022-09-12T06:19:18.601Z,2.97
2022-09-12T06:21:49.830Z,4.80
2022-09-12T06:24:19.014Z,3.15
2022-09-12T06:26:47.745Z,3.67
2022-09-12T06:29:16.594Z,3.00
2022-09-12T06:31:45.923Z,3.88
2022-09-12T06:34:16.241Z,2.83
2022-09-12T06:36:48.011Z,2.50
2022-09-12T06:39:18.214Z,3.67
2022-09-12T06:41:47.402Z,3.28
2022-09-12T06:44:19.444Z,2.65
2022-09-12T06:46:48.176Z,2.97
2022-09-12T06:49:18.054Z,4.32
2022-09-12T06:51:48.525Z,7.05
2022-09-12T06:54:18.255Z,6.75
2022-09-12T06:56:46.731Z,4.60
2022-09-12T06:59:15.675Z,32.78
2022-09-12T07:01:44.661Z,25.70
2022-09-12T07:04:13.231Z,7.18
2022-09-12T07:06:44.709Z,4.00
2022-09-12T07:09:17.546Z,4.07
2022-09-12T07:11:47.041Z,8.68
2022-09-12T07:14:16.199Z,3.92
2022-09-12T07:16:44.984Z,4.75
2022-09-12T07:19:14.746Z,5.15
2022-09-12T07:21:43.222Z,3.80
2022-09-12T07:24:13.219Z,2.78
2022-09-12T07:26:42.740Z,5.30
2022-09-12T07:29:36.071Z,4.97
2022-09-12T07:32:05.969Z,3.55
2022-09-12T07:34:34.789Z,4.70
2022-09-12T07:37:03.070Z,9.48
2022-09-12T07:39:32.893Z,11.05
2022-09-12T07:42:02.806Z,13.10
2022-09-12T07:44:31.256Z,5.55
2022-09-12T07:46:59.673Z,3.83
2022-09-12T07:49:28.112Z,4.47
2022-09-12T07:51:56.571Z,3.50
2022-09-12T07:54:24.951Z,2.95
2022-09-12T07:56:57.559Z,3.50
2022-09-12T07:59:50.990Z,36.97
2022-09-12T08:02:17.545Z,17.90
2022-09-12T08:04:46.929Z,4.10
2022-09-12T08:07:15.628Z,3.87
2022-09-12T08:09:43.975Z,5.33
2022-09-12T08:12:13.915Z,6.63
2022-09-12T08:14:42.375Z,3.70
2022-09-12T08:17:11.696Z,3.90
2022-09-12T08:19:40.115Z,3.90
2022-09-12T08:22:08.550Z,5.43
2022-09-12T08:24:36.938Z,2.90
2022-09-12T08:27:05.336Z,2.77
2022-09-12T08:29:35.248Z,3.27
2022-09-12T08:32:04.870Z,2.20
2022-09-12T08:34:33.234Z,2.10
2022-09-12T08:37:01.775Z,3.47
2022-09-12T08:39:30.200Z,3.53
2022-09-12T08:42:03.286Z,4.27
2022-09-12T08:45:06.554Z,6.80
2022-09-12T08:47:38.950Z,3.63
2022-09-12T08:50:18.018Z,3.47
2022-09-12T08:52:56.134Z,3.17
2022-09-12T08:55:36.204Z,2.77
2022-09-12T08:58:14.656Z,2.80
2022-09-12T09:00:50.656Z,2.80
2022-09-12T09:03:40.717Z,2.17
2022-09-12T09:06:21.391Z,2.00
2022-09-12T09:08:58.935Z,3.93
2022-09-12T09:11:48.345Z,2.60
2022-09-12T09:14:46.043Z,3.17
2022-09-12T09:17:25.402Z,6.27
2022-09-12T09:20:03.356Z,13.07
2022-09-12T09:22:42.870Z,16.47
2022-09-12T09:25:22.551Z,3.57
2022-09-12T09:27:57.984Z,5.37
2022-09-12T09:30:26.343Z,16.17
2022-09-12T09:33:01.044Z,17.10
2022-09-12T09:35:40.314Z,5.03
2022-09-12T09:38:24.925Z,3.77
2022-09-12T09:41:12.494Z,3.87
2022-09-12T09:43:41.134Z,14.33
2022-09-12T09:46:10.582Z,8.40
2022-09-12T09:48:45.000Z,5.17
2022-09-12T09:51:15.035Z,2.77
2022-09-12T09:53:49.594Z,2.43
2022-09-12T09:56:29.763Z,3.93
2022-09-12T09:58:58.431Z,5.23
2022-09-12T10:01:33.539Z,2.10
2022-09-12T10:04:04.536Z,1.30
2022-09-12T10:06:34.831Z,1.60
2022-09-12T10:09:18.845Z,2.63
2022-09-12T10:11:47.497Z,2.27
2022-09-12T10:14:31.653Z,2.47
2022-09-12T10:17:00.263Z,1.73
2022-09-12T10:19:37.843Z,4.27
2022-09-12T10:22:08.574Z,1.43
2022-09-12T10:24:41.355Z,4.93
2022-09-12T10:27:16.603Z,1.90
2022-09-12T10:29:48.646Z,3.00
2022-09-12T10:32:30.857Z,1.50
2022-09-12T10:35:03.773Z,1.20
2022-09-12T10:37:34.855Z,1.00
2022-09-12T10:40:08.098Z,3.03
2022-09-12T10:42:51.401Z,2.03
2022-09-12T10:45:26.495Z,2.33
2022-09-12T10:48:03.083Z,4.07
2022-09-12T10:50:38.314Z,5.23
2022-09-12T10:53:20.397Z,9.47
2022-09-12T10:56:06.982Z,3.90
2022-09-12T10:58:53.886Z,4.07
2022-09-12T11:01:36.569Z,4.83
2022-09-12T11:04:25.913Z,6.17
2022-09-12T11:07:19.253Z,4.70
2022-09-12T11:09:57.215Z,2.20
2022-09-12T11:12:33.315Z,6.47
2022-09-12T11:15:15.512Z,4.27
2022-09-12T11:17:53.097Z,4.70
2022-09-12T11:20:43.741Z,4.73
2022-09-12T11:23:57.362Z,4.00
2022-09-12T11:26:43.611Z,3.47
2022-09-12T11:29:22.397Z,1.77
2022-09-12T11:32:12.181Z,2.30
2022-09-12T11:34:53.382Z,2.20
2022-09-12T11:37:47.578Z,3.23
2022-09-12T11:40:29.187Z,2.90
2022-09-12T11:43:02.770Z,1.43
2022-09-12T11:45:37.270Z,1.10
2022-09-12T11:48:11.429Z,1.83
2022-09-12T11:50:39.972Z,1.50
2022-09-12T11:53:17.784Z,1.47
2022-09-12T11:55:56.660Z,1.80
2022-09-12T11:58:29.364Z,4.60
2022-09-12T12:01:04.443Z,1.50
2022-09-12T12:03:40.833Z,2.93
2022-09-12T12:06:19.201Z,1.37
2022-09-12T12:08:50.830Z,2.73
2022-09-12T12:11:32.332Z,2.37
2022-09-12T12:14:05.191Z,1.50
2022-09-12T12:16:35.589Z,0.90
2022-09-12T12:19:25.830Z,1.13
2022-09-12T12:21:54.471Z,0.90
2022-09-12T12:24:25.144Z,1.33
2022-09-12T12:27:00.989Z,2.13
2022-09-12T12:29:44.162Z,1.27
2022-09-12T12:32:33.663Z,1.00
2022-09-12T12:35:39.887Z,1.40
2022-09-12T12:38:28.842Z,1.20
2022-09-12T12:41:45.502Z,1.10
2022-09-12T12:45:05.331Z,1.27
2022-09-12T12:47:42.230Z,4.53
2022-09-12T12:50:23.997Z,1.90
2022-09-12T12:52:55.603Z,5.23
2022-09-12T12:55:28.104Z,5.37
2022-09-12T12:57:58.205Z,3.50
2022-09-12T13:00:33.951Z,2.13
2022-09-12T13:03:11.926Z,2.33
2022-09-12T13:05:43.026Z,5.13
2022-09-12T13:08:26.670Z,3.90
2022-09-12T13:10:59.351Z,2.47
2022-09-12T13:13:33.438Z,1.23
2022-09-12T13:16:02.172Z,1.17
2022-09-12T13:18:42.978Z,3.87
2022-09-12T13:21:14.689Z,4.80
2022-09-12T13:23:43.581Z,4.27
2022-09-12T13:26:14.501Z,1.87
2022-09-12T13:28:43.149Z,1.97
2022-09-12T13:31:24.516Z,1.87
2022-09-12T13:33:59.210Z,6.80
2022-09-12T13:36:55.881Z,7.00
2022-09-12T13:39:28.343Z,3.83
2022-09-12T13:42:24.870Z,3.30
2022-09-12T13:44:57.869Z,3.50
2022-09-12T13:47:30.783Z,2.03
2022-09-12T13:50:01.750Z,1.20
2022-09-12T13:52:33.507Z,1.50
2022-09-12T13:55:06.570Z,1.50
2022-09-12T13:57:37.765Z,2.33
2022-09-12T14:00:18.383Z,4.50
2022-09-12T14:02:48.649Z,1.63
2022-09-12T14:05:23.028Z,6.10
2022-09-12T14:07:56.731Z,1.53
2022-09-12T14:10:33.289Z,4.37
2022-09-12T14:13:12.242Z,1.50
2022-09-12T14:15:41.518Z,1.70
2022-09-12T14:18:24.718Z,3.40
2022-09-12T14:20:57.434Z,5.23
2022-09-12T14:23:32.458Z,1.47
2022-09-12T14:26:06.811Z,1.93
2022-09-12T14:28:37.749Z,2.33
2022-09-12T14:31:08.415Z,8.27
2022-09-12T14:33:49.583Z,2.70
2022-09-12T14:36:24.969Z,2.60
2022-09-12T14:38:56.925Z,2.10
2022-09-12T14:41:30.171Z,1.50
2022-09-12T14:44:01.862Z,2.80
2022-09-12T14:46:34.556Z,1.17
2022-09-12T14:49:09.414Z,1.70
2022-09-12T14:51:41.322Z,2.07
2022-09-12T14:54:37.591Z,1.50
2022-09-12T14:57:31.509Z,1.40
2022-09-12T15:00:21.072Z,1.50
2022-09-12T15:02:52.344Z,1.60
2022-09-12T15:05:24.731Z,1.60
2022-09-12T15:07:59.085Z,1.67
2022-09-12T15:10:31.635Z,13.43
2022-09-12T15:13:16.210Z,14.07
2022-09-12T15:15:47.167Z,8.40
2022-09-12T15:18:16.522Z,5.00
2022-09-12T15:20:46.247Z,2.80
2022-09-12T15:23:22.014Z,3.57
2022-09-12T15:25:51.035Z,2.77
2022-09-12T15:28:23.948Z,1.60
2022-09-12T15:30:54.777Z,1.93
2022-09-12T15:33:25.556Z,1.90
2022-09-12T15:35:54.406Z,1.53
2022-09-12T15:38:26.576Z,1.73
2022-09-12T15:40:56.047Z,1.30
2022-09-12T15:43:26.633Z,1.20
2022-09-12T15:45:55.514Z,1.60
2022-09-12T15:48:24.089Z,1.70
2022-09-12T15:50:53.123Z,3.13
2022-09-12T15:53:21.525Z,14.80
2022-09-12T15:55:51.457Z,4.47
2022-09-12T15:58:21.146Z,3.40
2022-09-12T16:00:49.540Z,8.57
2022-09-12T16:03:24.067Z,7.70
2022-09-12T16:05:57.401Z,5.90
2022-09-12T16:08:26.512Z,6.37
2022-09-12T16:10:58.323Z,4.60
2022-09-12T16:13:28.013Z,4.63
2022-09-12T16:15:58.516Z,18.80
2022-09-12T16:18:28.135Z,11.10
2022-09-12T16:20:57.212Z,15.10
2022-09-12T16:23:25.922Z,14.20
2022-09-12T16:26:03.119Z,12.90
2022-09-12T16:28:34.691Z,9.07
2022-09-12T16:31:08.559Z,8.03
2022-09-12T16:33:38.295Z,5.13
2022-09-12T16:36:12.059Z,5.03
2022-09-12T16:38:43.081Z,12.90
2022-09-12T16:41:14.522Z,14.80
2022-09-12T16:43:44.571Z,24.37
2022-09-12T16:46:16.285Z,18.87
2022-09-12T16:48:51.542Z,15.03
2022-09-12T16:51:23.733Z,13.37
2022-09-12T16:53:55.003Z,19.93
2022-09-12T16:56:26.762Z,42.23
2022-09-12T16:58:55.900Z,32.83
2022-09-12T17:01:26.674Z,33.97
2022-09-12T17:03:56.805Z,52.33
2022-09-12T17:06:26.922Z,44.17
2022-09-12T17:09:01.263Z,33.50
2022-09-12T17:11:36.512Z,23.57
2022-09-12T17:14:07.319Z,15.30
2022-09-12T17:16:38.305Z,11.70
2022-09-12T17:19:08.152Z,9.37
2022-09-12T17:21:37.127Z,25.63
2022-09-12T17:24:06.043Z,32.80
2022-09-12T17:26:38.486Z,28.00
2022-09-12T17:29:06.969Z,19.90
2022-09-12T17:31:38.084Z,14.87
2022-09-12T17:34:06.518Z,11.80
2022-09-12T17:36:44.564Z,6.53
2022-09-12T17:39:14.760Z,9.33
2022-09-12T17:41:46.325Z,8.50
2022-09-12T17:44:16.232Z,9.43
2022-09-12T17:46:45.864Z,9.17
2022-09-12T17:49:18.678Z,7.70
2022-09-12T17:51:49.046Z,7.53
2022-09-12T17:54:21.023Z,25.40
2022-09-12T17:56:51.969Z,34.17
2022-09-12T17:59:24.439Z,37.17
2022-09-12T18:02:11.282Z,22.50
2022-09-12T18:04:40.841Z,16.10
2022-09-12T18:07:12.134Z,10.17
2022-09-12T18:09:42.101Z,7.37
2022-09-12T18:12:12.699Z,5.43
2022-09-12T18:14:43.408Z,5.07
2022-09-12T18:17:14.523Z,4.73
2022-09-12T18:19:43.679Z,3.63
2022-09-12T18:22:12.212Z,3.90
2022-09-12T18:24:45.086Z,3.43
2022-09-12T18:27:14.782Z,4.10
2022-09-12T18:29:43.124Z,4.37
2022-09-12T18:32:11.913Z,4.10
2022-09-12T18:34:40.409Z,4.57
2022-09-12T18:37:08.762Z,4.10
2022-09-12T18:39:38.485Z,8.97
2022-09-12T18:42:07.376Z,5.63
2022-09-12T18:44:37.653Z,9.40
2022-09-12T18:47:06.545Z,20.53
2022-09-12T18:49:35.950Z,18.60
2022-09-12T18:52:04.613Z,13.83
2022-09-12T18:54:33.561Z,11.57
2022-09-12T18:57:04.812Z,10.20
2022-09-12T18:59:33.484Z,7.80
2022-09-12T19:02:03.413Z,6.13
2022-09-12T19:04:32.101Z,7.40
2022-09-12T19:07:01.638Z,4.93
2022-09-12T19:09:30.114Z,4.33
2022-09-12T19:11:59.285Z,4.27
2022-09-12T19:14:28.123Z,5.00
2022-09-12T19:16:56.544Z,6.13
2022-09-12T19:19:26.562Z,4.60
2022-09-12T19:21:55.296Z,6.77
2022-09-12T19:24:25.330Z,18.57
2022-09-12T19:26:54.507Z,14.07
2022-09-12T19:29:23.304Z,14.23
2022-09-12T19:31:52.288Z,26.50
2022-09-12T19:34:20.664Z,23.33
2022-09-12T19:36:50.511Z,21.07
2022-09-12T19:39:20.492Z,12.90
2022-09-12T19:41:49.371Z,11.67
2022-09-12T19:44:19.327Z,9.93
2022-09-12T19:46:47.867Z,8.23
2022-09-12T19:49:16.310Z,9.47
2022-09-12T19:51:44.972Z,5.87
2022-09-12T19:54:17.136Z,5.10
2022-09-12T19:56:49.598Z,6.53
2022-09-12T19:59:18.030Z,4.20
2022-09-12T20:01:46.918Z,5.33
2022-09-12T20:04:15.695Z,6.27
2022-09-12T20:06:44.395Z,4.57
2022-09-12T20:09:14.374Z,5.93
2022-09-12T20:11:42.839Z,5.63
2022-09-12T20:14:14.258Z,6.10
2022-09-12T20:16:43.347Z,4.57
2022-09-12T20:19:18.879Z,4.87
2022-09-12T20:21:47.479Z,19.03
2022-09-12T20:24:23.404Z,20.30
2022-09-12T20:26:51.730Z,14.87
2022-09-12T20:29:26.278Z,16.83
2022-09-12T20:31:54.835Z,20.73
2022-09-12T20:34:29.599Z,17.03
2022-09-12T20:36:58.482Z,14.70
2022-09-12T20:39:30.724Z,17.17
2022-09-12T20:41:59.023Z,12.53
2022-09-12T20:44:30.356Z,11.50
2022-09-12T20:46:59.823Z,7.13
2022-09-12T20:49:34.251Z,6.00
2022-09-12T20:52:05.239Z,5.87
2022-09-12T20:54:35.134Z,6.23
2022-09-12T20:57:03.697Z,8.10
2022-09-12T20:59:35.243Z,25.30
2022-09-12T21:02:03.581Z,23.83
2022-09-12T21:04:32.058Z,20.97
2022-09-12T21:07:00.801Z,24.27
2022-09-12T21:09:29.118Z,33.53
2022-09-12T21:11:58.967Z,22.10
2022-09-12T21:14:27.489Z,15.10
2022-09-12T21:16:55.958Z,12.20
2022-09-12T21:19:26.470Z,10.07
2022-09-12T21:21:54.943Z,9.10
2022-09-12T21:24:24.904Z,7.90
2022-09-12T21:26:53.512Z,7.40
2022-09-12T21:29:27.245Z,6.57
2022-09-12T21:31:56.130Z,5.70
2022-09-12T21:34:24.946Z,4.30
2022-09-12T21:36:54.854Z,4.43
2022-09-12T21:39:23.211Z,4.37
2022-09-12T21:41:51.595Z,4.17
2022-09-12T21:44:20.799Z,4.73
2022-09-12T21:46:51.158Z,4.03
2022-09-12T21:49:22.565Z,3.90
2022-09-12T21:51:52.696Z,3.87
2022-09-12T21:54:21.555Z,3.60
2022-09-12T21:56:50.189Z,4.33
2022-09-12T21:59:20.160Z,4.30
2022-09-12T22:01:49.260Z,3.60
2022-09-12T22:04:19.181Z,3.90
2022-09-12T22:06:47.908Z,3.33
2022-09-12T22:09:17.260Z,11.20
2022-09-12T22:11:47.290Z,11.57
2022-09-12T22:14:15.883Z,24.80
2022-09-12T22:16:45.113Z,14.83
2022-09-12T22:19:15.305Z,8.80
2022-09-12T22:22:06.313Z,7.50
2022-09-12T22:24:33.698Z,6.97
2022-09-12T22:27:05.167Z,8.87
2022-09-12T22:29:33.795Z,4.87
2022-09-12T22:32:02.521Z,8.07
2022-09-12T22:34:31.823Z,4.30
2022-09-12T22:37:01.619Z,5.13
2022-09-12T22:39:30.046Z,4.60
2022-09-12T22:41:59.178Z,4.00
2022-09-12T22:44:29.621Z,7.90
2022-09-12T22:46:58.206Z,4.23
2022-09-12T22:49:27.600Z,5.60
2022-09-12T22:51:56.180Z,4.07
2022-09-12T22:54:26.673Z,3.57
2022-09-12T22:56:55.506Z,3.90
2022-09-12T22:59:24.231Z,3.50
2022-09-12T23:01:52.774Z,4.87
2022-09-12T23:04:21.261Z,3.63
2022-09-12T23:06:50.182Z,4.00
2022-09-12T23:09:18.942Z,3.40
2022-09-12T23:11:49.526Z,3.20
2022-09-12T23:14:18.093Z,4.30
2022-09-12T23:16:47.148Z,3.50
2022-09-12T23:19:15.712Z,3.77
2022-09-12T23:21:44.153Z,3.97
2022-09-12T23:24:13.606Z,3.47
2022-09-12T23:26:42.385Z,2.93
2022-09-12T23:29:12.571Z,4.03
2022-09-12T23:31:42.141Z,4.60
2022-09-12T23:34:11.159Z,3.67
2022-09-12T23:36:41.234Z,3.63
2022-09-12T23:39:11.204Z,3.50
2022-09-12T23:41:40.842Z,4.27
2022-09-12T23:44:09.773Z,4.93
2022-09-12T23:46:39.664Z,3.90
2022-09-12T23:49:09.126Z,4.33
2022-09-12T23:51:37.670Z,4.53
2022-09-12T23:54:06.324Z,4.17
2022-09-12T23:56:34.883Z,4.37
2022-09-12T23:59:03.644Z,5.00
